Ridge Manor, Florida
Current Conditions -  °F | °C
As of 1:15 PM on Friday 28 Nov 2014 (Local Time) from KZPH Reporting Station
Clear Clear  
Wind Chill: 59°   Ceiling: Unl
Heat Index: 59°   Visibility: 10mi
Dew Point: 30°   Wind: 8mph
Humidity: 34%   Direction: 20°NNE
Pressure: 30.29"   Gusts: NA
Location:  28.3653°N, 82.1963°W
Report Text: KZPH 281815Z AUTO 02007KT 10SM CLR 15/M01 A3029 RMK AO2
Loading
Personal Weather Stations






























Interactive Weather Map New forecast layout! Learn more

10-Day Weather Forecast

Advertisements
Track Severe Weather on mobile